createdAt,value
2018-04-24T00:01:34.434Z,4.23
2018-04-24T00:04:02.290Z,4.67
2018-04-24T00:06:29.806Z,4.77
2018-04-24T00:08:57.320Z,3.87
2018-04-24T00:11:24.765Z,3.93
2018-04-24T00:13:52.220Z,4.27
2018-04-24T00:16:19.693Z,4.20
2018-04-24T00:18:47.529Z,5.40
2018-04-24T00:21:14.997Z,4.73
2018-04-24T00:23:42.473Z,4.90
2018-04-24T00:26:10.031Z,4.77
2018-04-24T00:28:37.501Z,5.03
2018-04-24T00:31:05.008Z,4.70
2018-04-24T00:33:32.956Z,4.77
2018-04-24T00:36:00.415Z,4.90
2018-04-24T00:38:27.876Z,4.30
2018-04-24T00:40:55.344Z,4.50
2018-04-24T00:43:22.858Z,4.57
2018-04-24T00:45:50.322Z,4.97
2018-04-24T00:48:17.777Z,3.97
2018-04-24T00:50:45.236Z,5.00
2018-04-24T00:53:24.713Z,4.30
2018-04-24T00:55:52.495Z,4.93
2018-04-24T00:58:19.957Z,5.00
2018-04-24T01:00:47.410Z,4.20
2018-04-24T01:03:14.864Z,4.67
2018-04-24T01:05:42.394Z,3.57
2018-04-24T01:08:09.847Z,4.20
2018-04-24T01:10:37.357Z,3.33
2018-04-24T01:13:04.917Z,5.47
2018-04-24T01:15:32.373Z,4.23
2018-04-24T01:17:59.849Z,3.80
2018-04-24T01:20:27.299Z,4.30
2018-04-24T01:22:54.789Z,4.50
2018-04-24T01:25:22.351Z,4.20
2018-04-24T01:27:49.824Z,4.50
2018-04-24T01:30:17.676Z,4.20
2018-04-24T01:32:45.459Z,3.67
2018-04-24T01:35:12.921Z,5.07
2018-04-24T01:37:40.468Z,4.10
2018-04-24T01:40:07.913Z,4.00
2018-04-24T01:42:35.499Z,3.77
2018-04-24T01:45:02.969Z,3.83
2018-04-24T01:47:30.525Z,4.10
2018-04-24T01:49:57.981Z,4.27
2018-04-24T01:52:25.426Z,4.70
2018-04-24T01:54:52.927Z,4.83
2018-04-24T01:57:20.385Z,3.97
2018-04-24T01:59:47.846Z,4.13
2018-04-24T02:02:15.389Z,4.30
2018-04-24T02:04:42.836Z,3.80
2018-04-24T02:07:10.344Z,4.47
2018-04-24T02:09:38.209Z,3.63
2018-04-24T02:12:05.762Z,3.77
2018-04-24T02:14:33.221Z,4.10
2018-04-24T02:17:00.677Z,3.90
2018-04-24T02:25:08.024Z,3.63
2018-04-24T02:27:35.964Z,4.60
2018-04-24T02:30:03.437Z,3.73
2018-04-24T02:48:11.290Z,5.20
2018-04-24T02:50:38.783Z,3.90
2018-04-24T02:53:06.361Z,4.30
2018-04-24T02:55:33.799Z,4.30
2018-04-24T03:00:36.223Z,4.77
2018-04-24T03:03:03.700Z,4.37
2018-04-24T03:05:31.563Z,4.80
2018-04-24T03:07:59.114Z,4.43
2018-04-24T03:10:26.581Z,3.90
2018-04-24T03:12:54.086Z,4.80
2018-04-24T03:15:21.559Z,4.70
2018-04-24T03:17:49.577Z,4.17
2018-04-24T03:20:17.132Z,4.40
2018-04-24T03:22:44.585Z,4.70
2018-04-24T03:25:12.052Z,4.20
2018-04-24T03:27:39.614Z,4.03
2018-04-24T03:30:07.067Z,4.77
2018-04-24T03:32:34.523Z,4.13
2018-04-24T03:35:01.969Z,4.03
2018-04-24T03:37:29.480Z,4.27
2018-04-24T03:39:57.417Z,4.60
2018-04-24T03:42:25.611Z,4.00
2018-04-24T03:44:53.077Z,3.80
2018-04-24T03:47:20.554Z,4.67
2018-04-24T03:49:48.030Z,4.03
2018-04-24T03:52:15.878Z,3.37
2018-04-24T03:54:43.339Z,3.80
2018-04-24T03:57:10.944Z,3.97
2018-04-24T03:59:38.374Z,3.90
2018-04-24T04:02:05.886Z,3.70
2018-04-24T04:04:33.352Z,4.83
2018-04-24T04:07:00.796Z,4.10
2018-04-24T04:09:28.251Z,4.60
2018-04-24T04:11:56.116Z,4.20
2018-04-24T04:14:23.670Z,4.70
2018-04-24T04:16:51.138Z,4.40
2018-04-24T04:32:50.942Z,5.03
2018-04-24T04:35:18.866Z,4.90
2018-04-24T04:37:46.321Z,4.97
2018-04-24T04:40:14.599Z,5.40
2018-04-24T04:42:42.060Z,5.30
2018-04-24T04:45:09.572Z,5.53
2018-04-24T04:47:37.420Z,5.40
2018-04-24T04:50:04.880Z,4.93
2018-04-24T04:52:32.333Z,5.03
2018-04-24T04:54:59.790Z,4.87
2018-04-24T04:57:27.292Z,5.13
2018-04-24T04:59:55.159Z,4.97
2018-04-24T05:02:22.680Z,5.80
2018-04-24T05:04:50.132Z,6.20
2018-04-24T05:07:17.598Z,10.73
2018-04-24T05:09:45.117Z,7.60
2018-04-24T05:12:13.046Z,5.70
2018-04-24T05:14:40.506Z,5.30
2018-04-24T05:17:07.978Z,4.27
2018-04-24T05:19:35.424Z,5.67
2018-04-24T05:22:02.932Z,4.77
2018-04-24T05:24:30.854Z,5.60
2018-04-24T05:26:58.299Z,6.17
2018-04-24T05:29:25.752Z,5.17
2018-04-24T05:31:53.212Z,5.43
2018-04-24T05:34:20.730Z,6.30
2018-04-24T05:36:48.320Z,6.57
2018-04-24T05:39:16.264Z,5.80
2018-04-24T05:41:43.722Z,6.53
2018-04-24T05:44:11.181Z,6.07
2018-04-24T05:46:38.750Z,5.70
2018-04-24T05:49:06.214Z,5.87
2018-04-24T05:51:33.669Z,6.20
2018-04-24T05:54:01.130Z,6.23
2018-04-24T05:56:28.594Z,6.10
2018-04-24T05:58:56.096Z,5.83
2018-04-24T06:01:23.941Z,5.87
2018-04-24T06:03:51.394Z,7.40
2018-04-24T06:06:18.849Z,6.00
2018-04-24T06:08:46.305Z,6.97
2018-04-24T06:11:13.825Z,5.83
2018-04-24T06:13:41.291Z,7.00
2018-04-24T06:16:08.764Z,6.63
2018-04-24T06:18:36.229Z,5.97
2018-04-24T06:21:03.688Z,6.37
2018-04-24T06:23:32.373Z,5.90
2018-04-24T06:25:59.826Z,5.77
2018-04-24T06:28:27.328Z,6.40
2018-04-24T06:30:55.138Z,5.90
2018-04-24T06:33:22.989Z,5.33
2018-04-24T06:35:50.498Z,7.00
2018-04-24T06:38:18.006Z,7.13
2018-04-24T06:40:45.465Z,6.23
2018-04-24T06:43:13.036Z,7.00
2018-04-24T06:45:40.498Z,6.60
2018-04-24T06:48:07.966Z,5.83
2018-04-24T06:50:35.705Z,5.27
2018-04-24T06:53:03.180Z,5.70
2018-04-24T06:55:30.628Z,5.20
2018-04-24T06:57:58.094Z,6.00
2018-04-24T07:00:25.594Z,5.10
2018-04-24T07:02:53.067Z,5.30
2018-04-24T07:05:20.918Z,6.10
2018-04-24T07:07:48.386Z,5.10
2018-04-24T07:10:15.944Z,5.63
2018-04-24T07:12:43.427Z,5.50
2018-04-24T07:15:11.285Z,5.27
2018-04-24T07:17:39.136Z,5.13
2018-04-24T07:20:06.604Z,5.17
2018-04-24T07:22:34.056Z,5.20
2018-04-24T07:25:01.529Z,5.10
2018-04-24T07:27:28.984Z,5.17
2018-04-24T07:29:56.561Z,5.00
2018-04-24T07:32:24.233Z,5.53
2018-04-24T07:34:51.693Z,4.97
2018-04-24T07:37:19.196Z,4.80
2018-04-24T07:39:46.655Z,5.20
2018-04-24T07:42:14.165Z,5.00
2018-04-24T07:44:41.630Z,5.40
2018-04-24T07:47:09.751Z,4.67
2018-04-24T07:49:37.344Z,4.50
2018-04-24T07:52:04.804Z,5.70
2018-04-24T07:54:32.258Z,4.87
2018-04-24T07:57:00.101Z,5.30
2018-04-24T07:59:27.582Z,5.50
2018-04-24T08:01:55.104Z,4.80
2018-04-24T08:04:22.576Z,5.53
2018-04-24T08:06:50.537Z,4.47
2018-04-24T08:09:18.105Z,4.60
2018-04-24T08:11:45.553Z,4.67
2018-04-24T08:14:13.148Z,4.47
2018-04-24T08:16:41.257Z,4.43
2018-04-24T08:19:08.723Z,4.53
2018-04-24T08:21:36.222Z,5.47
2018-04-24T08:24:03.688Z,4.13
2018-04-24T08:26:31.152Z,4.53
2018-04-24T08:28:58.616Z,6.13
2018-04-24T08:31:26.072Z,4.77
2018-04-24T08:33:53.629Z,6.17
2018-04-24T08:36:21.190Z,4.60
2018-04-24T08:38:48.750Z,5.60
2018-04-24T08:41:16.202Z,4.60
2018-04-24T08:43:43.880Z,4.60
2018-04-24T08:46:11.353Z,4.60
2018-04-24T08:48:38.819Z,4.00
2018-04-24T08:51:06.325Z,4.10
2018-04-24T08:53:33.795Z,3.50
2018-04-24T08:56:01.315Z,3.20
2018-04-24T08:58:29.082Z,3.67
2018-04-24T09:00:56.631Z,3.67
2018-04-24T09:03:24.155Z,3.87
2018-04-24T09:05:51.603Z,3.70
2018-04-24T09:08:19.054Z,3.77
2018-04-24T09:10:46.911Z,4.23
2018-04-24T09:13:14.374Z,3.10
2018-04-24T09:15:41.888Z,3.47
2018-04-24T09:18:09.344Z,3.67
2018-04-24T09:20:36.940Z,3.37
2018-04-24T09:23:04.401Z,3.50
2018-04-24T09:25:31.845Z,3.40
2018-04-24T09:27:59.536Z,3.40
2018-04-24T09:30:27.007Z,2.50
2018-04-24T09:32:54.464Z,3.80
2018-04-24T09:35:27.843Z,2.97
2018-04-24T09:37:55.298Z,2.70
2018-04-24T09:40:22.952Z,3.03
2018-04-24T09:42:50.405Z,3.00
2018-04-24T09:45:17.874Z,3.30
2018-04-24T09:47:45.403Z,3.13
2018-04-24T09:50:13.255Z,3.70
2018-04-24T09:52:40.765Z,2.97
2018-04-24T09:55:08.229Z,3.33
2018-04-24T09:57:35.730Z,2.97
2018-04-24T10:00:03.190Z,2.53
2018-04-24T10:02:30.657Z,2.97
2018-04-24T10:04:58.210Z,3.03
2018-04-24T10:07:25.668Z,4.03
2018-04-24T10:09:53.115Z,3.23
2018-04-24T10:12:20.611Z,3.10
2018-04-24T10:14:48.073Z,2.90
2018-04-24T10:17:15.837Z,2.93
2018-04-24T10:19:43.343Z,2.90
2018-04-24T10:22:10.973Z,2.63
2018-04-24T10:24:38.430Z,2.47
2018-04-24T10:27:05.878Z,2.87
2018-04-24T10:29:33.395Z,2.73
2018-04-24T10:32:01.344Z,3.13
2018-04-24T10:34:29.200Z,3.43
2018-04-24T10:36:56.759Z,1.83
2018-04-24T10:39:24.657Z,1.90
2018-04-24T10:41:52.564Z,2.53
2018-04-24T10:44:20.031Z,2.50
2018-04-24T10:46:47.486Z,2.43
2018-04-24T10:49:14.940Z,2.20
2018-04-24T10:51:42.403Z,2.60
2018-04-24T10:54:09.899Z,2.30
2018-04-24T10:56:37.348Z,2.07
2018-04-24T10:59:04.815Z,2.13
2018-04-24T11:01:32.271Z,2.13
2018-04-24T11:03:59.724Z,3.10
2018-04-24T11:06:27.247Z,2.30
2018-04-24T11:08:54.803Z,2.00
2018-04-24T11:11:22.272Z,2.60
2018-04-24T11:13:49.737Z,2.03
2018-04-24T11:16:17.680Z,1.90
2018-04-24T11:18:45.192Z,2.23
2018-04-24T11:21:13.054Z,2.20
2018-04-24T11:23:40.593Z,2.07
2018-04-24T11:26:08.040Z,2.13
2018-04-24T11:28:35.522Z,2.63
2018-04-24T11:31:03.362Z,2.90
2018-04-24T11:33:30.812Z,2.30
2018-04-24T11:35:58.369Z,2.40
2018-04-24T11:38:25.729Z,1.93
2018-04-24T11:40:53.179Z,2.00
2018-04-24T11:43:20.694Z,1.97
2018-04-24T11:45:48.151Z,1.57
2018-04-24T11:48:15.639Z,2.10
2018-04-24T11:50:43.528Z,1.70
2018-04-24T11:53:11.388Z,1.70
2018-04-24T11:55:39.293Z,2.07
2018-04-24T11:58:06.740Z,2.83
2018-04-24T12:00:34.195Z,2.03
2018-04-24T12:03:02.060Z,2.07
2018-04-24T12:05:29.905Z,2.00
2018-04-24T12:07:57.415Z,2.30
2018-04-24T12:10:24.877Z,2.30
2018-04-24T12:12:52.327Z,1.93
2018-04-24T12:15:19.919Z,1.90
2018-04-24T12:17:47.726Z,1.90
2018-04-24T12:20:15.240Z,2.47
2018-04-24T12:22:42.715Z,2.23
2018-04-24T12:25:10.167Z,1.77
2018-04-24T12:27:37.620Z,1.83
2018-04-24T12:30:05.094Z,2.80
2018-04-24T12:32:32.608Z,2.13
2018-04-24T12:35:00.057Z,1.83
2018-04-24T12:37:27.513Z,1.97
2018-04-24T12:39:54.975Z,1.97
2018-04-24T12:42:22.431Z,2.03
2018-04-24T12:44:49.903Z,1.73
2018-04-24T12:47:17.352Z,1.70
2018-04-24T12:49:44.829Z,1.77
2018-04-24T12:52:12.383Z,1.67
2018-04-24T12:54:40.292Z,1.90
2018-04-24T12:57:08.186Z,2.63
2018-04-24T12:59:35.656Z,2.57
2018-04-24T13:02:03.168Z,2.30
2018-04-24T13:04:30.608Z,1.67
2018-04-24T13:06:58.063Z,2.10
2018-04-24T13:09:25.535Z,2.00
2018-04-24T13:11:53.112Z,1.87
2018-04-24T13:14:20.572Z,1.97
2018-04-24T13:16:48.024Z,1.63
2018-04-24T13:19:15.499Z,1.80
2018-04-24T13:21:43.021Z,2.00
2018-04-24T13:24:10.480Z,1.80
2018-04-24T13:26:37.924Z,2.10
2018-04-24T13:29:05.771Z,1.60
2018-04-24T13:31:33.225Z,2.67
2018-04-24T13:34:00.688Z,2.20
2018-04-24T13:36:28.142Z,2.80
2018-04-24T13:38:55.617Z,2.13
2018-04-24T13:41:23.075Z,2.73
2018-04-24T13:43:50.563Z,2.50
2018-04-24T13:46:18.485Z,2.80
2018-04-24T13:48:45.979Z,2.47
2018-04-24T13:51:13.437Z,2.90
2018-04-24T13:53:40.902Z,2.13
2018-04-24T13:56:08.347Z,2.37
2018-04-24T13:58:35.867Z,2.23
2018-04-24T14:01:03.337Z,2.00
2018-04-24T14:03:30.832Z,2.10
2018-04-24T14:05:58.296Z,2.07
2018-04-24T14:08:25.743Z,2.47
2018-04-24T14:10:53.248Z,2.13
2018-04-24T14:13:21.427Z,2.07
2018-04-24T14:15:49.289Z,2.37
2018-04-24T14:18:16.760Z,2.07
2018-04-24T14:20:44.721Z,2.00
2018-04-24T14:23:12.226Z,3.00
2018-04-24T14:25:39.669Z,2.10
2018-04-24T14:28:07.567Z,1.87
2018-04-24T14:30:35.013Z,2.13
2018-04-24T14:33:02.549Z,1.80
2018-04-24T14:35:30.073Z,1.93
2018-04-24T14:37:57.524Z,2.50
2018-04-24T14:40:24.999Z,2.13
2018-04-24T14:42:52.512Z,2.27
2018-04-24T14:45:20.462Z,2.20
2018-04-24T14:47:47.976Z,2.50
2018-04-24T14:50:15.480Z,1.90
2018-04-24T14:52:43.056Z,1.80
2018-04-24T14:55:10.500Z,2.80
2018-04-24T14:57:37.962Z,2.10
2018-04-24T15:00:05.524Z,2.27
2018-04-24T15:02:32.971Z,2.00
2018-04-24T15:05:00.427Z,2.10
2018-04-24T15:07:27.919Z,2.07
2018-04-24T15:09:55.383Z,2.17
2018-04-24T15:12:22.848Z,2.03
2018-04-24T15:14:50.425Z,2.03
2018-04-24T15:17:17.880Z,2.10
2018-04-24T15:19:45.340Z,2.10
2018-04-24T15:22:12.802Z,2.20
2018-04-24T15:24:40.373Z,2.47
2018-04-24T15:27:09.298Z,2.03
2018-04-24T15:29:36.767Z,2.40
2018-04-24T15:32:04.685Z,2.13
2018-04-24T15:34:32.136Z,2.03
2018-04-24T15:36:59.600Z,1.63
2018-04-24T15:39:27.066Z,2.70
2018-04-24T15:41:54.537Z,2.07
2018-04-24T15:44:22.101Z,1.73
2018-04-24T15:46:49.561Z,2.00
2018-04-24T15:49:17.124Z,2.17
2018-04-24T15:51:44.654Z,2.37
2018-04-24T15:54:12.118Z,2.20
2018-04-24T15:56:39.620Z,1.80
2018-04-24T15:59:07.444Z,2.00
2018-04-24T16:01:34.994Z,2.20
2018-04-24T16:04:02.728Z,2.30
2018-04-24T16:06:30.516Z,1.87
2018-04-24T16:08:57.996Z,1.40
2018-04-24T16:11:25.782Z,2.30
2018-04-24T16:13:53.490Z,1.90
2018-04-24T16:16:20.971Z,1.80
2018-04-24T16:18:48.442Z,1.90
2018-04-24T16:21:15.900Z,1.70
2018-04-24T16:23:43.858Z,1.60
2018-04-24T16:26:11.402Z,2.20
2018-04-24T16:28:38.854Z,2.43
2018-04-24T16:31:06.317Z,1.97
2018-04-24T16:33:33.803Z,2.53
2018-04-24T16:36:01.273Z,1.80
2018-04-24T16:38:28.842Z,2.10
2018-04-24T16:40:56.333Z,2.23
2018-04-24T16:43:24.191Z,1.97
2018-04-24T16:45:52.152Z,1.90
2018-04-24T16:48:19.643Z,2.10
2018-04-24T16:50:47.170Z,2.10
2018-04-24T16:53:14.632Z,2.20
2018-04-24T16:55:42.111Z,2.10
2018-04-24T16:58:09.710Z,2.60
2018-04-24T17:00:37.245Z,3.23
2018-04-24T17:03:04.702Z,2.40
2018-04-24T17:05:32.173Z,2.10
2018-04-24T17:08:00.055Z,1.97
2018-04-24T17:10:27.510Z,2.20
2018-04-24T17:12:55.393Z,1.77
2018-04-24T17:15:22.911Z,1.90
2018-04-24T17:17:50.372Z,2.20
2018-04-24T17:20:17.850Z,2.10
2018-04-24T17:22:45.734Z,1.87
2018-04-24T17:25:14.567Z,2.03
2018-04-24T17:27:42.171Z,1.87
2018-04-24T17:30:09.732Z,2.30
2018-04-24T17:32:37.212Z,2.43
2018-04-24T17:35:05.065Z,2.00
2018-04-24T17:37:32.537Z,1.93
2018-04-24T17:40:00.135Z,2.60
2018-04-24T17:42:27.645Z,2.20
2018-04-24T17:44:55.213Z,2.13
2018-04-24T17:47:22.676Z,2.27
2018-04-24T17:49:50.181Z,2.10
2018-04-24T17:52:17.668Z,2.60
2018-04-24T17:54:45.133Z,2.20
2018-04-24T17:57:12.650Z,2.20
2018-04-24T17:59:40.080Z,2.00
2018-04-24T18:02:07.533Z,2.23
2018-04-24T18:04:35.386Z,2.20
2018-04-24T18:07:02.904Z,1.93
2018-04-24T18:09:30.354Z,2.13
2018-04-24T18:11:57.846Z,2.10
2018-04-24T18:14:25.702Z,2.20
2018-04-24T18:16:53.179Z,2.10
2018-04-24T18:19:21.041Z,2.40
2018-04-24T18:21:48.518Z,2.33
2018-04-24T18:24:16.448Z,2.10
2018-04-24T18:26:44.025Z,2.00
2018-04-24T18:29:11.537Z,2.03
2018-04-24T18:31:39.993Z,2.23
2018-04-24T18:34:08.352Z,2.17
2018-04-24T18:36:35.827Z,2.47
2018-04-24T18:39:03.307Z,2.20
2018-04-24T18:41:31.246Z,2.30
2018-04-24T18:43:58.729Z,2.53
2018-04-24T18:46:26.212Z,1.80
2018-04-24T18:48:54.079Z,1.87
2018-04-24T18:51:22.019Z,2.00
2018-04-24T18:53:49.596Z,1.70
2018-04-24T18:56:17.286Z,2.63
2018-04-24T18:58:44.766Z,2.50
2018-04-24T19:01:12.225Z,2.13
2018-04-24T19:03:40.196Z,2.30
2018-04-24T19:06:07.994Z,2.07
2018-04-24T19:08:35.839Z,2.60
2018-04-24T19:11:04.421Z,2.30
2018-04-24T19:13:31.906Z,2.50
2018-04-24T19:15:59.397Z,2.10
2018-04-24T19:18:32.689Z,2.43
2018-04-24T19:21:00.524Z,2.40
2018-04-24T19:23:28.036Z,2.57
2018-04-24T19:25:55.525Z,2.93
2018-04-24T19:28:23.381Z,2.63
2018-04-24T19:30:51.543Z,2.00
2018-04-24T19:33:19.008Z,2.40
2018-04-24T19:35:46.470Z,2.53
2018-04-24T19:38:13.960Z,2.30
2018-04-24T19:40:47.516Z,2.07
2018-04-24T19:43:15.453Z,2.43
2018-04-24T19:45:42.975Z,2.40
2018-04-24T19:48:16.067Z,3.10
2018-04-24T19:50:43.609Z,3.00
2018-04-24T19:53:11.188Z,2.33
2018-04-24T19:55:38.749Z,2.30
2018-04-24T19:58:06.204Z,2.73
2018-04-24T20:00:33.796Z,2.47
2018-04-24T20:03:01.356Z,2.93
2018-04-24T20:05:28.823Z,3.00
2018-04-24T20:07:56.740Z,3.10
2018-04-24T20:10:24.218Z,2.80
2018-04-24T20:12:51.708Z,2.80
2018-04-24T20:15:19.270Z,2.40
2018-04-24T20:17:46.754Z,2.53
2018-04-24T20:20:14.357Z,3.10
2018-04-24T20:22:42.368Z,3.00
2018-04-24T20:25:09.835Z,2.53
2018-04-24T20:27:37.384Z,3.20
2018-04-24T20:30:04.849Z,2.70
2018-04-24T20:32:32.322Z,2.97
2018-04-24T20:34:59.773Z,2.43
2018-04-24T20:37:27.249Z,2.70
2018-04-24T20:39:54.722Z,3.10
2018-04-24T20:42:22.691Z,3.33
2018-04-24T20:44:50.165Z,2.93
2018-04-24T20:47:18.025Z,3.27
2018-04-24T20:49:45.610Z,3.97
2018-04-24T20:52:13.556Z,2.83
2018-04-24T20:54:41.066Z,3.43
2018-04-24T20:57:10.088Z,3.03
2018-04-24T20:59:37.595Z,2.90
2018-04-24T21:02:05.810Z,3.43
2018-04-24T21:04:33.331Z,3.47
2018-04-24T21:07:00.803Z,3.83
2018-04-24T21:09:28.686Z,3.43
2018-04-24T21:11:56.541Z,3.23
2018-04-24T21:14:24.505Z,3.40
2018-04-24T21:16:51.999Z,3.37
2018-04-24T21:19:19.485Z,3.67
2018-04-24T21:21:46.978Z,3.43
2018-04-24T21:24:14.452Z,3.50
2018-04-24T21:26:42.021Z,3.60
2018-04-24T21:31:43.501Z,3.37
2018-04-24T21:34:11.436Z,2.87
2018-04-24T21:36:38.934Z,3.37
2018-04-24T21:39:07.459Z,3.77
2018-04-24T21:41:34.984Z,3.37
2018-04-24T21:44:02.463Z,3.60
2018-04-24T21:46:29.999Z,2.90
2018-04-24T21:48:57.483Z,3.50
2018-04-24T21:51:25.364Z,3.40
2018-04-24T21:53:52.832Z,3.30
2018-04-24T21:56:20.931Z,3.53
2018-04-24T21:58:48.437Z,3.80
2018-04-24T22:01:15.924Z,3.70
2018-04-24T22:03:43.804Z,3.80
2018-04-24T22:06:11.278Z,3.00
2018-04-24T22:08:38.806Z,3.40
2018-04-24T22:11:06.269Z,3.83
2018-04-24T22:13:34.240Z,3.63
2018-04-24T22:16:01.671Z,4.70
2018-04-24T22:18:29.123Z,3.87
2018-04-24T22:20:56.601Z,3.67
2018-04-24T22:23:24.434Z,4.03
2018-04-24T22:25:51.906Z,3.70
2018-04-24T22:28:19.417Z,3.40
2018-04-24T22:30:46.900Z,3.87
2018-04-24T22:33:14.776Z,4.37
2018-04-24T22:35:42.688Z,3.93
2018-04-24T22:38:10.172Z,3.60
2018-04-24T22:40:37.713Z,4.13
2018-04-24T22:43:05.119Z,3.70
2018-04-24T22:45:33.080Z,3.30
2018-04-24T22:48:00.718Z,3.80
2018-04-24T22:50:28.198Z,3.43
2018-04-24T22:52:55.693Z,3.77
2018-04-24T22:55:23.160Z,3.80
2018-04-24T22:57:51.058Z,4.00
2018-04-24T23:00:18.595Z,4.00
2018-04-24T23:02:46.468Z,4.10
2018-04-24T23:05:14.418Z,4.23
2018-04-24T23:07:41.894Z,4.70
2018-04-24T23:10:09.283Z,5.17
2018-04-24T23:12:48.575Z,4.70
2018-04-24T23:15:27.792Z,4.43
2018-04-24T23:18:07.193Z,4.20
2018-04-24T23:20:34.192Z,4.20
2018-04-24T23:23:01.729Z,4.60
2018-04-24T23:25:29.194Z,4.00
2018-04-24T23:27:56.672Z,4.40
2018-04-24T23:30:24.163Z,4.13
2018-04-24T23:32:51.626Z,4.47
2018-04-24T23:35:19.164Z,4.57
2018-04-24T23:37:46.643Z,4.17
2018-04-24T23:40:14.578Z,4.67
2018-04-24T23:42:42.069Z,4.37
2018-04-24T23:45:09.540Z,4.20
2018-04-24T23:47:37.068Z,4.47
2018-04-24T23:50:04.547Z,4.10
2018-04-24T23:52:32.132Z,4.70
2018-04-24T23:55:00.027Z,4.63
2018-04-24T23:57:27.574Z,4.40
2018-04-24T23:59:55.490Z,4.43
